Time;durP1;ratioP1;P1;durP2;ratioP2;P2;SDS_P1;SDS_P2;PMS_P1;PMS_P2;Temp;Humidity;BMP_temperature;BMP_pressure;BME280_temperature;BME280_humidity;BME280_pressure;Samples;Min_cycle;Max_cycle;Signal;HPM_P1;HPM_P2
2022/10/30 00:02:53;;;;;;;13.82;6.25;;;18.00;99.90;;;;;;10112547;28;20041;-59
2022/10/30 00:07:44;;;;;;;9.18;5.53;;;18.00;99.90;;;;;;10106400;28;20037;-59
2022/10/30 00:12:35;;;;;;;10.55;5.50;;;18.00;99.90;;;;;;10106259;28;20253;-60
2022/10/30 00:17:25;;;;;;;10.10;5.05;;;17.90;99.90;;;;;;10106742;28;20335;-59
2022/10/30 00:22:16;;;;;;;9.13;4.88;;;17.90;99.90;;;;;;10105894;28;20021;-60
2022/10/30 00:27:07;;;;;;;9.25;5.85;;;17.80;99.90;;;;;;10109582;28;20032;-57
2022/10/30 00:31:57;;;;;;;9.57;5.28;;;17.90;99.90;;;;;;10105019;28;20032;-62
2022/10/30 00:36:48;;;;;;;12.85;5.60;;;17.80;99.90;;;;;;10098942;28;20025;-61
2022/10/30 00:41:40;;;;;;;9.85;5.10;;;17.80;99.90;;;;;;10109655;28;20189;-57
2022/10/30 00:46:38;;;;;;;13.77;6.22;;;17.70;99.90;;;;;;10107007;28;20033;-58
2022/10/30 00:51:30;;;;;;;8.27;5.15;;;17.60;99.90;;;;;;10091291;28;20036;-62
2022/10/30 00:56:22;;;;;;;9.82;4.75;;;17.50;99.90;;;;;;10108826;28;20640;-59
2022/10/30 01:01:18;;;;;;;9.40;4.70;;;17.50;99.90;;;;;;10108702;28;20074;-58
2022/10/30 01:06:13;;;;;;;8.73;5.20;;;17.50;99.90;;;;;;10103580;28;20037;-58
2022/10/30 01:11:04;;;;;;;10.60;5.27;;;17.50;99.90;;;;;;10111200;28;20025;-61
2022/10/30 01:16:16;;;;;;;9.52;4.68;;;17.30;99.90;;;;;;10074504;28;20048;-56
2022/10/30 01:21:23;;;;;;;10.80;6.10;;;17.30;99.90;;;;;;10096959;28;20037;-59
2022/10/30 01:26:14;;;;;;;10.02;5.78;;;17.30;99.90;;;;;;10103441;28;20094;-61
2022/10/30 01:31:32;;;;;;;13.88;7.07;;;17.20;99.90;;;;;;10108882;28;20056;-61
2022/10/30 01:36:39;;;;;;;14.90;6.25;;;17.20;99.90;;;;;;10094196;28;20040;-62
2022/10/30 01:41:30;;;;;;;10.52;5.80;;;17.10;99.90;;;;;;10104560;28;20017;-64
2022/10/30 01:46:32;;;;;;;13.43;6.07;;;17.00;99.90;;;;;;10104780;28;20040;-62
2022/10/30 01:51:34;;;;;;;10.05;5.90;;;17.00;99.90;;;;;;10097673;28;20040;-63
2022/10/30 01:56:36;;;;;;;11.15;5.43;;;17.00;99.90;;;;;;10103623;28;20037;-64
2022/10/30 02:01:28;;;;;;;8.90;5.60;;;17.00;99.90;;;;;;10091464;28;20025;-63
2022/10/30 02:06:19;;;;;;;12.63;7.38;;;16.90;99.90;;;;;;10107673;28;20127;-63
2022/10/30 02:11:10;;;;;;;10.40;5.45;;;17.00;99.90;;;;;;10111279;28;20028;-66
2022/10/30 02:16:00;;;;;;;9.57;5.50;;;16.90;99.90;;;;;;10118015;28;20044;-64
2022/10/30 02:20:51;;;;;;;10.23;5.43;;;16.90;99.90;;;;;;10107260;28;20021;-66
2022/10/30 02:25:42;;;;;;;8.77;5.00;;;16.90;99.90;;;;;;10111219;28;20065;-62
2022/10/30 02:30:32;;;;;;;9.27;4.95;;;16.90;99.90;;;;;;10119506;28;20032;-62
2022/10/30 02:35:23;;;;;;;13.15;5.10;;;16.80;99.90;;;;;;10105484;28;20482;-63
2022/10/30 02:40:13;;;;;;;10.43;4.60;;;16.80;99.90;;;;;;10110824;28;20354;-66
2022/10/30 02:45:05;;;;;;;8.57;4.95;;;16.80;99.90;;;;;;10108300;28;20040;-63
2022/10/30 02:49:55;;;;;;;11.60;5.80;;;16.80;99.90;;;;;;10113720;28;20025;-64
2022/10/30 02:54:46;;;;;;;10.00;4.63;;;16.90;99.90;;;;;;10110667;28;20423;-63
2022/10/30 02:59:36;;;;;;;9.52;4.45;;;16.80;99.90;;;;;;10108308;28;20043;-63
2022/10/30 03:04:27;;;;;;;9.90;4.30;;;16.70;99.90;;;;;;10106813;28;20036;-68
2022/10/30 03:09:18;;;;;;;12.55;6.18;;;16.70;99.90;;;;;;10102631;28;20080;-69
2022/10/30 03:14:09;;;;;;;9.80;4.30;;;16.70;99.90;;;;;;10107860;28;20052;-63
2022/10/30 03:18:59;;;;;;;10.32;4.53;;;16.70;99.90;;;;;;10104230;28;20326;-65
2022/10/30 03:23:51;;;;;;;6.32;3.88;;;16.60;99.90;;;;;;10104775;28;20041;-64
2022/10/30 03:28:41;;;;;;;9.25;4.55;;;16.60;99.90;;;;;;10114504;28;20025;-63
2022/10/30 03:33:32;;;;;;;9.63;4.20;;;16.50;99.90;;;;;;10106165;28;20060;-66
2022/10/30 03:38:23;;;;;;;8.95;6.03;;;16.50;99.90;;;;;;10099611;28;20095;-64
2022/10/30 03:43:14;;;;;;;7.60;5.05;;;16.40;99.90;;;;;;10107004;28;20395;-62
2022/10/30 03:48:05;;;;;;;13.00;5.18;;;16.40;99.90;;;;;;10100509;28;20067;-63
2022/10/30 03:52:56;;;;;;;11.25;4.88;;;16.30;99.90;;;;;;10108487;28;20489;-65
2022/10/30 03:57:47;;;;;;;12.90;4.60;;;16.30;99.90;;;;;;10102901;28;20037;-62
2022/10/30 04:02:38;;;;;;;12.00;4.63;;;16.30;99.90;;;;;;10108434;28;20188;-66
2022/10/30 04:07:28;;;;;;;7.68;4.60;;;16.20;99.90;;;;;;10103461;28;20045;-65
2022/10/30 04:12:19;;;;;;;10.52;4.20;;;16.20;99.90;;;;;;10108281;28;20035;-64
2022/10/30 04:17:10;;;;;;;11.68;5.50;;;16.20;99.90;;;;;;10114554;28;20061;-63
2022/10/30 04:22:01;;;;;;;10.75;4.57;;;16.20;99.90;;;;;;10109386;28;20036;-64
2022/10/30 04:26:51;;;;;;;10.65;4.75;;;16.20;99.90;;;;;;10104114;28;20047;-64
2022/10/30 04:31:42;;;;;;;5.93;4.07;;;16.10;99.90;;;;;;10103000;28;20037;-62
2022/10/30 04:36:33;;;;;;;8.60;4.40;;;16.10;99.90;;;;;;10095802;28;20087;-62
2022/10/30 04:41:23;;;;;;;9.55;4.03;;;16.10;99.90;;;;;;10107059;28;20020;-63
2022/10/30 04:46:14;;;;;;;10.73;5.10;;;16.00;99.90;;;;;;10105278;28;20040;-63
2022/10/30 04:51:04;;;;;;;12.68;4.57;;;16.00;99.90;;;;;;10103764;28;20033;-63
2022/10/30 04:55:55;;;;;;;5.80;3.90;;;15.90;99.90;;;;;;10109181;28;20066;-64
2022/10/30 05:00:46;;;;;;;8.52;4.22;;;15.80;99.90;;;;;;10103578;28;20100;-68
2022/10/30 05:05:36;;;;;;;7.00;4.18;;;15.80;99.90;;;;;;10117926;28;20036;-65
2022/10/30 05:10:27;;;;;;;8.55;4.10;;;15.80;99.90;;;;;;10103391;28;20026;-65
2022/10/30 05:15:18;;;;;;;11.15;4.60;;;15.70;99.90;;;;;;10119788;28;20041;-64
2022/10/30 05:20:09;;;;;;;9.88;4.85;;;15.70;99.90;;;;;;10105236;28;20334;-64
2022/10/30 05:25:00;;;;;;;8.55;4.63;;;15.70;99.90;;;;;;10103312;28;20048;-62
2022/10/30 05:29:50;;;;;;;9.40;4.47;;;15.70;99.90;;;;;;10118183;28;20364;-63
2022/10/30 05:34:41;;;;;;;9.68;4.85;;;15.60;99.90;;;;;;10097537;28;20491;-65
2022/10/30 05:39:31;;;;;;;8.85;4.53;;;15.60;99.90;;;;;;10080719;28;20026;-66
2022/10/30 05:44:22;;;;;;;8.20;4.82;;;15.60;99.90;;;;;;10101979;28;20049;-66
2022/10/30 05:49:13;;;;;;;8.30;4.55;;;15.50;99.90;;;;;;10100228;28;20039;-64
2022/10/30 05:54:03;;;;;;;10.55;4.80;;;15.50;99.90;;;;;;10100500;28;20251;-63
2022/10/30 05:58:54;;;;;;;7.18;4.18;;;15.50;99.90;;;;;;10110334;28;20043;-62
2022/10/30 06:03:45;;;;;;;14.60;6.25;;;15.50;99.90;;;;;;10110826;28;20021;-64
2022/10/30 06:08:35;;;;;;;10.73;4.65;;;15.50;99.90;;;;;;10109239;28;20225;-65
2022/10/30 06:13:26;;;;;;;11.30;5.13;;;15.40;99.90;;;;;;10115085;28;20025;-67
2022/10/30 06:18:16;;;;;;;6.85;3.75;;;15.40;99.90;;;;;;10112222;28;20025;-62
2022/10/30 06:23:09;;;;;;;8.88;4.40;;;15.40;99.90;;;;;;10114298;28;20040;-63
2022/10/30 06:28:00;;;;;;;10.60;5.55;;;15.40;99.90;;;;;;10127423;28;20082;-63
2022/10/30 06:32:57;;;;;;;8.00;4.95;;;15.50;99.90;;;;;;10106394;28;20082;-65
2022/10/30 06:37:48;;;;;;;9.80;5.60;;;15.50;99.90;;;;;;10106922;28;20025;-63
2022/10/30 06:42:47;;;;;;;13.63;5.22;;;15.50;99.90;;;;;;10107286;28;20029;-64
2022/10/30 06:47:38;;;;;;;9.63;4.45;;;15.50;99.90;;;;;;10109536;28;20120;-62
2022/10/30 06:52:28;;;;;;;13.30;4.93;;;15.60;99.90;;;;;;10108459;28;20009;-62
2022/10/30 06:57:19;;;;;;;6.60;4.05;;;15.60;99.90;;;;;;10107749;28;20032;-62
2022/10/30 07:02:10;;;;;;;11.05;5.10;;;15.70;99.90;;;;;;10107532;28;20032;-61
2022/10/30 07:07:00;;;;;;;10.75;4.97;;;15.70;99.90;;;;;;10102560;28;20095;-64
2022/10/30 07:11:51;;;;;;;7.18;4.80;;;15.70;99.90;;;;;;10113280;28;20231;-63
2022/10/30 07:16:41;;;;;;;11.48;5.50;;;15.80;99.90;;;;;;10114612;28;20279;-63
2022/10/30 07:21:32;;;;;;;6.55;4.45;;;15.80;99.90;;;;;;10108376;28;20041;-63
2022/10/30 07:26:23;;;;;;;11.50;4.85;;;15.80;99.90;;;;;;10105914;28;20235;-63
2022/10/30 07:31:13;;;;;;;9.63;4.40;;;15.80;99.90;;;;;;10111782;28;20033;-63
2022/10/30 07:36:04;;;;;;;9.27;4.63;;;15.70;99.90;;;;;;10098332;28;20032;-63
2022/10/30 07:40:55;;;;;;;8.80;4.38;;;15.70;99.90;;;;;;10102938;28;20052;-62
2022/10/30 07:45:46;;;;;;;13.02;4.45;;;15.80;99.90;;;;;;10098498;28;20095;-63
2022/10/30 07:50:37;;;;;;;9.32;4.55;;;15.80;99.90;;;;;;10098821;28;20051;-63
2022/10/30 07:55:27;;;;;;;10.50;5.70;;;15.80;99.90;;;;;;10098219;28;20021;-64
2022/10/30 08:00:18;;;;;;;13.63;5.35;;;15.80;99.90;;;;;;10098350;28;20028;-63
2022/10/30 08:05:09;;;;;;;8.98;4.50;;;15.90;99.90;;;;;;10097631;28;20120;-65
2022/10/30 08:09:59;;;;;;;9.63;5.13;;;16.00;99.90;;;;;;10098066;28;20390;-62
2022/10/30 08:14:50;;;;;;;9.23;4.53;;;16.10;99.90;;;;;;10103646;28;20045;-62
2022/10/30 08:19:40;;;;;;;13.27;5.40;;;16.20;99.90;;;;;;10097282;28;20384;-62
2022/10/30 08:24:31;;;;;;;10.85;6.05;;;16.30;99.90;;;;;;10097245;28;20415;-65
2022/10/30 08:29:22;;;;;;;14.07;5.60;;;16.40;99.90;;;;;;10110419;28;20025;-63
2022/10/30 08:34:13;;;;;;;10.68;4.55;;;16.40;99.90;;;;;;10097468;28;20040;-61
2022/10/30 08:39:06;;;;;;;7.32;4.30;;;16.50;99.90;;;;;;10087570;28;20446;-64
2022/10/30 08:43:57;;;;;;;8.23;5.10;;;16.70;99.90;;;;;;10100354;28;20083;-63
2022/10/30 08:48:47;;;;;;;9.18;4.25;;;16.90;99.90;;;;;;10072054;28;20036;-64
2022/10/30 08:53:38;;;;;;;6.18;4.45;;;17.00;99.90;;;;;;10058050;28;20538;-65
2022/10/30 08:58:29;;;;;;;8.68;5.28;;;17.10;99.90;;;;;;10099320;28;20029;-64
2022/10/30 09:03:19;;;;;;;9.45;5.47;;;17.30;99.90;;;;;;10110428;28;20033;-64
2022/10/30 09:08:10;;;;;;;9.55;4.90;;;17.50;99.90;;;;;;10102053;28;20037;-63
2022/10/30 09:13:01;;;;;;;12.68;4.90;;;17.80;99.90;;;;;;10108846;28;20025;-64
2022/10/30 09:18:03;;;;;;;6.65;4.55;;;18.00;99.90;;;;;;10115131;28;20037;-64
2022/10/30 09:22:54;;;;;;;9.15;4.63;;;18.10;99.90;;;;;;10121862;28;20021;-63
2022/10/30 09:27:44;;;;;;;11.93;5.53;;;18.30;99.90;;;;;;10128386;28;20033;-64
2022/10/30 09:32:35;;;;;;;10.32;5.07;;;18.40;99.90;;;;;;10112967;28;20035;-63
2022/10/30 09:37:26;;;;;;;10.93;4.63;;;18.90;99.90;;;;;;10108041;28;20061;-63
2022/10/30 09:42:38;;;;;;;7.55;3.85;;;19.00;99.90;;;;;;10111553;28;20029;-65
2022/10/30 09:47:43;;;;;;;10.60;4.20;;;19.10;99.90;;;;;;10099572;28;20053;-61
2022/10/30 09:52:41;;;;;;;;;;;19.20;99.90;;;;;;10099896;28;20050;-62
2022/10/30 09:57:42;;;;;;;6.78;3.95;;;19.30;99.90;;;;;;10110583;28;19913;-62
2022/10/30 10:02:37;;;;;;;7.60;4.47;;;19.40;99.90;;;;;;10111861;28;20029;-64
2022/10/30 10:07:39;;;;;;;6.00;2.77;;;19.60;99.90;;;;;;10114327;28;20036;-62
2022/10/30 10:12:42;;;;;;;9.80;4.50;;;19.80;99.90;;;;;;10118239;28;20043;-63
2022/10/30 10:17:39;;;;;;;9.10;4.13;;;19.90;99.90;;;;;;10111016;28;20574;-62
2022/10/30 10:22:59;;;;;;;8.68;3.22;;;20.00;99.90;;;;;;10109033;28;20021;-65
2022/10/30 10:27:59;;;;;;;8.07;3.53;;;20.20;99.90;;;;;;10116087;28;20036;-63
2022/10/30 10:32:56;;;;;;;7.15;3.40;;;20.50;99.90;;;;;;10090057;28;20032;-63
2022/10/30 10:38:11;;;;;;;9.52;3.10;;;20.70;99.90;;;;;;10103120;28;20037;-66
2022/10/30 10:43:27;;;;;;;10.45;4.13;;;20.70;99.90;;;;;;10107056;28;20453;-64
2022/10/30 10:48:55;;;;;;;10.43;5.07;;;20.90;99.90;;;;;;10106935;28;20078;-63
2022/10/30 10:53:59;;;;;;;7.80;3.95;;;21.00;99.90;;;;;;10118250;28;20066;-63
2022/10/30 10:58:55;;;;;;;8.13;3.00;;;21.10;99.90;;;;;;10120889;28;20328;-64
2022/10/30 11:03:59;;;;;;;6.22;3.10;;;21.00;99.90;;;;;;10104684;28;20121;-63
2022/10/30 11:08:52;;;;;;;6.57;3.00;;;21.20;99.90;;;;;;10099975;28;20818;-65
2022/10/30 11:13:44;;;;;;;8.95;4.20;;;21.00;99.90;;;;;;10106612;28;20060;-65
2022/10/30 11:18:35;;;;;;;8.82;3.08;;;21.00;99.90;;;;;;10100708;28;20531;-66
2022/10/30 11:23:42;;;;;;;7.57;3.72;;;21.00;99.90;;;;;;10100040;28;20079;-68
2022/10/30 11:28:53;;;;;;;7.85;3.20;;;21.00;99.90;;;;;;10105327;28;20431;-63
2022/10/30 11:33:43;;;;;;;7.90;3.05;;;21.10;99.90;;;;;;10099785;28;20029;-64
2022/10/30 11:38:34;;;;;;;10.18;3.35;;;21.20;99.90;;;;;;10090083;28;20028;-64
2022/10/30 11:43:25;;;;;;;6.00;2.85;;;21.20;99.90;;;;;;10101296;28;20033;-63
2022/10/30 11:48:28;;;;;;;6.20;3.10;;;21.20;99.90;;;;;;10086724;28;20040;-62
2022/10/30 11:53:23;;;;;;;9.52;3.67;;;21.30;99.90;;;;;;10074835;28;20099;-64
2022/10/30 11:58:36;;;;;;;7.70;3.40;;;21.40;99.90;;;;;;10087731;28;20044;-65
2022/10/30 12:03:38;;;;;;;7.65;3.00;;;21.40;99.90;;;;;;10075838;28;20104;-63
2022/10/30 12:08:28;;;;;;;6.45;3.55;;;21.50;99.90;;;;;;10080233;28;20198;-69
2022/10/30 12:13:21;;;;;;;8.20;3.00;;;21.60;99.90;;;;;;10106228;28;20311;-65
2022/10/30 12:18:31;;;;;;;9.68;3.47;;;21.70;99.90;;;;;;10099033;28;20118;-63
2022/10/30 12:23:25;;;;;;;6.20;3.15;;;21.90;99.90;;;;;;10076717;28;20072;-64
2022/10/30 12:28:22;;;;;;;8.52;3.45;;;22.00;99.90;;;;;;10074614;28;20168;-61
2022/10/30 12:33:24;;;;;;;5.00;3.00;;;22.10;99.90;;;;;;10087118;28;20017;-61
2022/10/30 12:38:29;;;;;;;9.68;3.03;;;22.30;99.90;;;;;;10089235;28;20032;-61
2022/10/30 12:43:26;;;;;;;4.65;3.03;;;22.40;99.90;;;;;;10090252;28;20359;-62
2022/10/30 12:48:21;;;;;;;5.00;3.50;;;22.70;99.90;;;;;;10088814;28;20844;-63
2022/10/30 12:53:30;;;;;;;6.22;3.13;;;22.90;99.90;;;;;;10088088;28;20123;-65
2022/10/30 12:58:35;;;;;;;7.25;3.13;;;23.20;99.90;;;;;;10087187;28;20070;-65
2022/10/30 13:03:37;;;;;;;5.55;2.67;;;23.50;99.90;;;;;;10087944;28;20048;-61
2022/10/30 13:08:36;;;;;;;6.57;4.20;;;23.50;99.90;;;;;;10089087;28;20037;-61
2022/10/30 13:13:36;;;;;;;9.00;3.28;;;23.50;99.90;;;;;;10090525;28;20090;-63
2022/10/30 13:18:31;;;;;;;9.10;2.95;;;23.40;99.90;;;;;;10089257;28;20083;-63
2022/10/30 13:23:48;;;;;;;;;;;23.40;99.90;;;;;;10089153;28;20071;-63
2022/10/30 13:29:21;;;;;;;5.88;3.25;;;23.60;99.90;;;;;;10070992;28;20540;-65
2022/10/30 13:34:53;;;;;;;5.70;3.05;;;23.80;99.90;;;;;;10084606;28;20036;-61
2022/10/30 13:40:13;;;;;;;9.25;3.90;;;24.00;99.90;;;;;;10084336;28;20462;-62
2022/10/30 13:45:41;;;;;;;5.40;3.13;;;24.10;99.90;;;;;;10085544;28;20033;-63
2022/10/30 13:50:34;;;;;;;8.85;3.92;;;24.10;99.90;;;;;;10095550;28;20021;-61
2022/10/30 13:55:28;;;;;;;5.22;3.38;;;24.10;99.90;;;;;;10088367;28;20044;-66
2022/10/30 14:00:23;;;;;;;6.17;3.60;;;24.10;99.90;;;;;;10088068;28;20061;-62
2022/10/30 14:05:32;;;;;;;;;;;24.00;99.90;;;;;;10091893;28;20310;-65
2022/10/30 14:10:45;;;;;;;4.50;2.92;;;23.70;99.90;;;;;;10094703;28;20405;-62
2022/10/30 14:15:44;;;;;;;7.80;3.25;;;23.60;99.90;;;;;;10093345;28;20057;-62
2022/10/30 14:20:35;;;;;;;8.25;3.35;;;23.60;99.90;;;;;;10099406;28;20061;-65
2022/10/30 14:25:25;;;;;;;8.02;3.08;;;23.50;99.90;;;;;;10097501;28;20248;-64
2022/10/30 14:30:18;;;;;;;6.70;3.50;;;23.50;99.90;;;;;;10096959;28;20033;-63
2022/10/30 14:35:37;;;;;;;8.43;3.38;;;23.40;99.90;;;;;;10100163;28;20039;-63
2022/10/30 14:40:55;;;;;;;8.45;4.15;;;23.30;99.90;;;;;;10091126;28;20021;-63
2022/10/30 14:45:53;;;;;;;9.02;3.30;;;23.10;99.90;;;;;;10095562;28;20518;-62
2022/10/30 14:51:52;;;;;;;7.30;3.95;;;23.00;99.90;;;;;;10090467;28;20017;-61
2022/10/30 14:56:48;;;;;;;10.18;5.10;;;23.00;99.90;;;;;;9973698;28;20497;-62
2022/10/30 15:01:52;;;;;;;8.55;3.95;;;23.00;99.90;;;;;;9977420;28;20503;-65
2022/10/30 15:07:20;;;;;;;9.48;3.78;;;22.90;99.90;;;;;;10026350;28;20048;-61
2022/10/30 15:12:29;;;;;;;8.00;4.18;;;22.80;99.90;;;;;;10101326;28;20385;-62
2022/10/30 15:17:39;;;;;;;9.13;4.15;;;22.60;99.90;;;;;;10102508;28;20167;-65
2022/10/30 15:22:31;;;;;;;8.30;3.40;;;22.50;99.90;;;;;;10088114;28;20029;-63
2022/10/30 15:27:24;;;;;;;6.57;3.10;;;22.40;99.90;;;;;;10093488;28;20421;-64
2022/10/30 15:32:17;;;;;;;7.68;3.20;;;22.30;99.90;;;;;;10108515;28;20029;-65
2022/10/30 15:37:11;;;;;;;7.30;3.78;;;22.10;99.90;;;;;;10099332;28;20397;-66
2022/10/30 15:42:03;;;;;;;5.90;2.90;;;22.00;99.90;;;;;;10088099;28;20021;-63
2022/10/30 15:46:56;;;;;;;6.88;3.83;;;21.80;99.90;;;;;;10086318;28;20502;-64
2022/10/30 15:51:47;;;;;;;7.93;3.53;;;21.60;99.90;;;;;;10085744;28;20021;-68
2022/10/30 15:56:43;;;;;;;8.73;4.43;;;21.40;99.90;;;;;;10083844;28;20126;-66
2022/10/30 16:01:41;;;;;;;13.15;4.72;;;21.30;99.90;;;;;;10084138;28;20183;-68
2022/10/30 16:06:32;;;;;;;14.70;5.97;;;21.10;99.90;;;;;;10083417;28;20041;-68
2022/10/30 16:11:25;;;;;;;19.05;8.30;;;20.90;99.90;;;;;;10082056;28;20690;-70
2022/10/30 16:16:35;;;;;;;12.73;6.63;;;20.80;99.90;;;;;;10083910;28;20080;-70
2022/10/30 16:21:29;;;;;;;11.63;4.75;;;20.70;99.90;;;;;;10081590;28;20033;-69
2022/10/30 16:26:33;;;;;;;22.38;9.10;;;20.60;99.90;;;;;;10079331;28;20496;-66
2022/10/30 16:31:31;;;;;;;21.58;9.10;;;20.50;99.90;;;;;;10085807;28;20391;-66
2022/10/30 16:36:22;;;;;;;11.88;6.25;;;20.30;99.90;;;;;;10094371;28;20111;-66
2022/10/30 16:41:13;;;;;;;14.32;5.38;;;20.20;99.90;;;;;;10102770;28;20028;-68
2022/10/30 16:46:45;;;;;;;11.13;5.93;;;20.20;99.90;;;;;;10094552;28;20039;-67
2022/10/30 16:51:38;;;;;;;11.50;6.03;;;20.10;99.90;;;;;;10084463;28;20044;-67
2022/10/30 16:56:31;;;;;;;17.65;9.13;;;20.00;99.90;;;;;;10089311;28;20027;-66
2022/10/30 17:01:28;;;;;;;15.45;6.88;;;19.90;99.90;;;;;;10085381;28;20434;-66
2022/10/30 17:06:39;;;;;;;13.35;6.43;;;19.90;99.90;;;;;;10084673;28;20520;-66
2022/10/30 17:11:40;;;;;;;9.18;5.43;;;19.80;99.90;;;;;;10085399;28;20028;-68
2022/10/30 17:16:36;;;;;;;14.20;6.25;;;19.80;99.90;;;;;;10086157;28;20053;-66
2022/10/30 17:21:39;;;;;;;26.08;8.77;;;19.60;99.90;;;;;;10084092;28;20079;-68
2022/10/30 17:26:37;;;;;;;13.20;7.18;;;19.50;99.90;;;;;;10083215;28;20811;-66
2022/10/30 17:31:37;;;;;;;17.80;8.55;;;19.50;99.90;;;;;;10087690;28;20033;-67
2022/10/30 17:36:27;;;;;;;16.13;7.97;;;19.50;99.90;;;;;;10092631;28;20021;-66
2022/10/30 17:41:18;;;;;;;17.33;7.82;;;19.40;99.90;;;;;;10096825;28;20075;-67
2022/10/30 17:46:08;;;;;;;17.73;7.50;;;19.40;99.90;;;;;;10097342;28;20033;-68
2022/10/30 17:50:59;;;;;;;19.75;10.13;;;19.40;99.90;;;;;;10094566;28;20053;-68
2022/10/30 17:56:03;;;;;;;13.63;7.30;;;19.40;99.90;;;;;;10086029;28;20040;-69
2022/10/30 18:00:54;;;;;;;18.17;7.55;;;19.40;99.90;;;;;;10093625;28;20095;-73
2022/10/30 18:05:46;;;;;;;13.00;7.07;;;19.40;99.90;;;;;;10098414;28;20029;-72
2022/10/30 18:10:37;;;;;;;22.52;10.20;;;19.40;99.90;;;;;;10096726;28;20021;-72
2022/10/30 18:15:43;;;;;;;15.55;7.20;;;19.30;99.90;;;;;;10095430;28;20051;-71
2022/10/30 18:20:34;;;;;;;21.35;9.07;;;19.30;99.90;;;;;;10095537;28;20025;-70
2022/10/30 18:25:26;;;;;;;21.88;9.70;;;19.20;99.90;;;;;;10093099;28;20048;-66
2022/10/30 18:30:18;;;;;;;19.00;9.68;;;19.10;99.90;;;;;;10096546;28;20442;-62
2022/10/30 18:35:23;;;;;;;20.63;10.63;;;19.00;99.90;;;;;;10096616;28;20662;-61
2022/10/30 18:40:14;;;;;;;19.83;9.27;;;19.00;99.90;;;;;;10097041;28;20037;-63
2022/10/30 18:45:19;;;;;;;18.38;8.75;;;18.90;99.90;;;;;;10083179;28;20049;-61
2022/10/30 18:50:10;;;;;;;13.63;8.63;;;18.90;99.90;;;;;;10089282;28;20024;-64
2022/10/30 18:55:01;;;;;;;20.88;9.90;;;18.80;99.90;;;;;;10092846;28;20491;-62
2022/10/30 18:59:52;;;;;;;20.33;9.32;;;18.80;99.90;;;;;;10096206;28;20486;-63
2022/10/30 19:04:42;;;;;;;20.33;11.70;;;18.80;99.90;;;;;;10098336;28;20092;-64
2022/10/30 19:09:33;;;;;;;19.63;9.57;;;18.80;99.90;;;;;;10095613;28;20453;-62
2022/10/30 19:14:24;;;;;;;17.58;9.02;;;18.80;99.90;;;;;;10087773;28;20110;-64
2022/10/30 19:19:14;;;;;;;20.48;8.95;;;18.70;99.90;;;;;;10089637;28;20044;-62
2022/10/30 19:24:12;;;;;;;20.65;10.32;;;18.60;99.90;;;;;;10090242;28;20040;-60
2022/10/30 19:29:02;;;;;;;15.98;8.32;;;18.60;99.90;;;;;;10091997;28;20029;-61
2022/10/30 19:33:53;;;;;;;13.55;7.53;;;18.50;99.90;;;;;;10086386;28;20084;-62
2022/10/30 19:38:44;;;;;;;19.25;8.48;;;18.50;99.90;;;;;;10090824;28;20270;-60
2022/10/30 19:43:34;;;;;;;20.40;10.05;;;18.50;99.90;;;;;;10081307;28;20029;-61
2022/10/30 19:48:25;;;;;;;20.75;10.73;;;18.50;99.90;;;;;;10084057;28;20083;-66
2022/10/30 19:53:16;;;;;;;19.33;9.30;;;18.50;99.90;;;;;;10091980;28;20108;-66
2022/10/30 19:58:11;;;;;;;16.63;8.80;;;18.40;99.90;;;;;;10091630;28;20029;-65
2022/10/30 20:03:03;;;;;;;15.43;8.32;;;18.30;99.90;;;;;;10083192;28;20101;-66
2022/10/30 20:07:59;;;;;;;20.73;9.15;;;18.30;99.90;;;;;;10088428;28;20231;-65
2022/10/30 20:12:49;;;;;;;;;;;18.40;99.90;;;;;;10092521;28;20115;-66
2022/10/30 20:17:40;;;;;;;16.88;8.07;;;18.30;99.90;;;;;;10083730;28;19924;-68
2022/10/30 20:22:30;;;;;;;13.00;8.25;;;18.20;99.90;;;;;;10083658;28;21501;-67
2022/10/30 20:27:21;;;;;;;16.30;9.50;;;18.20;99.90;;;;;;10087279;28;20056;-65
2022/10/30 20:32:12;;;;;;;20.35;9.55;;;18.20;99.90;;;;;;10088750;28;20036;-66
2022/10/30 20:37:02;;;;;;;26.88;12.50;;;18.10;99.90;;;;;;10085812;28;20094;-67
2022/10/30 20:41:53;;;;;;;16.42;10.55;;;18.00;99.90;;;;;;10088155;28;20665;-66
2022/10/30 20:46:44;;;;;;;19.00;10.18;;;18.10;99.90;;;;;;10086876;28;20059;-66
2022/10/30 20:51:35;;;;;;;19.13;9.93;;;18.00;99.90;;;;;;10088606;28;20076;-66
2022/10/30 20:56:26;;;;;;;17.20;10.07;;;18.00;99.90;;;;;;10088294;28;20071;-67
2022/10/30 21:01:16;;;;;;;19.20;10.73;;;18.00;99.90;;;;;;10087493;28;20025;-68
2022/10/30 21:06:08;;;;;;;16.02;9.88;;;17.90;99.90;;;;;;10083398;28;20037;-67
2022/10/30 21:11:01;;;;;;;20.25;11.73;;;17.90;99.90;;;;;;10081680;28;20025;-68
2022/10/30 21:15:52;;;;;;;18.00;9.80;;;17.80;99.90;;;;;;10089812;28;20057;-68
2022/10/30 21:20:42;;;;;;;21.73;9.65;;;17.80;99.90;;;;;;10086109;28;20449;-64
2022/10/30 21:25:34;;;;;;;16.98;10.18;;;17.70;99.90;;;;;;10083826;28;20067;-65
2022/10/30 21:30:25;;;;;;;16.73;9.57;;;17.70;99.90;;;;;;10099939;28;20072;-65
2022/10/30 21:35:16;;;;;;;16.13;9.02;;;17.70;99.90;;;;;;10101967;28;20100;-67
2022/10/30 21:40:07;;;;;;;16.73;8.00;;;17.60;99.90;;;;;;10109359;28;20592;-65
2022/10/30 21:44:58;;;;;;;17.92;8.65;;;17.60;99.90;;;;;;10090654;28;20083;-67
2022/10/30 21:49:49;;;;;;;15.23;8.70;;;17.50;99.90;;;;;;10082358;28;20017;-67
2022/10/30 21:54:41;;;;;;;13.15;7.60;;;17.50;99.90;;;;;;10084097;28;20033;-66
2022/10/30 21:59:32;;;;;;;16.92;8.05;;;17.50;99.90;;;;;;10090334;28;20433;-66
2022/10/30 22:04:22;;;;;;;12.95;8.98;;;17.50;99.90;;;;;;10091253;28;20605;-66
2022/10/30 22:09:15;;;;;;;13.40;9.40;;;17.40;99.90;;;;;;10089388;28;20034;-67
2022/10/30 22:14:06;;;;;;;18.38;9.07;;;17.40;99.90;;;;;;10088300;28;20041;-65
2022/10/30 22:18:57;;;;;;;24.67;8.35;;;17.40;99.90;;;;;;10090829;28;20025;-65
2022/10/30 22:23:48;;;;;;;15.15;8.65;;;17.30;99.90;;;;;;10096125;28;20107;-66
2022/10/30 22:28:38;;;;;;;17.63;9.40;;;17.30;99.90;;;;;;10097340;28;20128;-66
2022/10/30 22:33:30;;;;;;;17.05;8.60;;;17.20;99.90;;;;;;10097103;28;20064;-67
2022/10/30 22:38:21;;;;;;;17.42;8.27;;;17.30;99.90;;;;;;10097787;28;20110;-66
2022/10/30 22:43:11;;;;;;;15.40;8.73;;;17.20;99.90;;;;;;10097430;28;20561;-66
2022/10/30 22:48:02;;;;;;;15.75;8.95;;;17.10;99.90;;;;;;10097498;28;20099;-66
2022/10/30 22:52:56;;;;;;;17.05;8.75;;;17.10;99.90;;;;;;10096236;28;20029;-67
2022/10/30 22:57:51;;;;;;;14.70;8.90;;;17.00;99.90;;;;;;10097179;28;20049;-67
2022/10/30 23:02:42;;;;;;;21.83;8.68;;;16.90;99.90;;;;;;10098608;28;20017;-68
2022/10/30 23:07:32;;;;;;;16.55;8.85;;;16.90;99.90;;;;;;10096251;28;20708;-67
2022/10/30 23:12:23;;;;;;;14.88;8.93;;;16.90;99.90;;;;;;10094736;28;20025;-67
2022/10/30 23:17:14;;;;;;;17.02;7.70;;;16.90;99.90;;;;;;10101715;28;20041;-66
2022/10/30 23:22:04;;;;;;;14.88;6.78;;;16.90;99.90;;;;;;10099453;28;20056;-65
2022/10/30 23:26:55;;;;;;;14.57;6.88;;;16.80;99.90;;;;;;10092197;28;20558;-66
2022/10/30 23:31:45;;;;;;;13.30;7.40;;;16.70;99.90;;;;;;10094670;28;20023;-66
2022/10/30 23:36:36;;;;;;;15.02;6.78;;;16.70;99.90;;;;;;10090952;28;20438;-66
2022/10/30 23:41:30;;;;;;;11.20;5.97;;;16.70;99.90;;;;;;10096253;28;20060;-67
2022/10/30 23:46:21;;;;;;;6.65;4.35;;;16.70;99.90;;;;;;10096605;28;20133;-67
2022/10/30 23:51:11;;;;;;;8.80;4.95;;;16.70;99.90;;;;;;10108587;28;20037;-67
2022/10/30 23:56:03;;;;;;;9.27;4.80;;;16.70;99.90;;;;;;10102334;28;20047;-67
